Blue Image — 3EXO5 — position and weather

sailwx.info

Track history (hours):
 
Tides and Currents Weather Stations Pressure Air Temp Water Temp Dewpoint Dewpoint Depression Visibility Wind Speed Wind Dir Waves Ship Positions

Blue Image

Last reported at 2015-Aug-29 17:18 UTC. Time now 2015-Sep-03 17:15 UTC.
Position N 35°58' W 025°36'.

Length 160 m; draft 9.3 m.

Type: Cargo ship. MMSI: 351960000.

Date/timePositionNaut miles runAvg speedWind from/ knotsBaromVisibWave heightAir tempDewpointWater temp
2015-Aug-29 17:18N 35°58' W 025°36'912.5
2015-Aug-29 16:33N 35°58' W 025°24'1312.8
2015-Aug-29 15:34N 35°57' W 025°09'1312.8
2015-Aug-29 14:33N 35°57' W 024°53'1312.9
2015-Aug-29 13:33N 35°57' W 024°37'1312.8
2015-Aug-29 12:33N 35°58' W 024°21'1412.3
2015-Aug-29 11:25N 35°58' W 024°04'  
2015-Aug-27 02:12N 35°58' W 010°02'2112.6
2015-Aug-27 00:33N 35°57' W 009°37'6612.4
2015-Aug-26 19:15N 35°58' W 008°15'398 8.4
2015-Aug-24 20:04N 36°34' W 000°04'711.7
2015-Aug-24 19:28N 36°36' E 000°04'1111.7
2015-Aug-24 18:34N 36°39' E 000°17'1111.3
2015-Aug-24 17:33N 36°43' E 000°30'1511.4
2015-Aug-24 16:16N 36°47' E 000°48'20211.3
2015-Aug-23 22:21N 37°23' E 004°57'1012.0
2015-Aug-23 21:33N 37°24' E 005°09'1812.0
2015-Aug-23 20:04N 37°26' E 005°31'18412.5
2015-Aug-23 05:25N 37°42' E 009°22'4611.9
2015-Aug-23 01:33N 37°38' E 010°20'1211.9
2015-Aug-23 00:33N 37°35' E 010°34'1312.1
2015-Aug-22 23:28N 37°32' E 010°51'7712.6
2015-Aug-22 17:23N 37°02' E 012°20'1012.5
2015-Aug-22 16:33N 36°59' E 012°32'1312.6
2015-Aug-22 15:33N 36°55' E 012°47'1312.6
2015-Aug-22 14:33N 36°51' E 013°02'1312.5
2015-Aug-22 13:33N 36°48' E 013°17'1212.2
2015-Aug-22 12:33N 36°44' E 013°32'1212.0
2015-Aug-22 11:33N 36°40' E 013°46'1312.5
2015-Aug-22 10:33N 36°36' E 014°01'1312.7
2015-Aug-22 09:33N 36°33' E 014°16'1312.6
2015-Aug-22 08:33N 36°29' E 014°31'1312.5
2015-Aug-22 07:33N 36°27' E 014°46'41612.4
2015-Aug-20 22:05N 36°23' E 023°23'712.8
2015-Aug-20 21:33N 36°26' E 023°30'1412.8
2015-Aug-20 20:27N 36°37' E 023°42'1212.9
2015-Aug-20 19:33N 36°45' E 023°52'1312.8
2015-Aug-20 18:33N 36°55' E 024°02'1313.2
2015-Aug-20 17:33N 37°05' E 024°13'1313.3
2015-Aug-20 16:33N 37°15' E 024°24'6512.7
2015-Aug-20 11:27N 38°17' E 024°50'  
Track history (hours):
 
Tides and Currents Weather Stations Pressure Air Temp Water Temp Dewpoint Dewpoint Depression Visibility Wind Speed Wind Dir Waves Ship Positions

Blue Image

Last reported at 2015-Aug-29 17:18 UTC. Time now 2015-Sep-03 17:15 UTC.
Position N 35°58' W 025°36'.

Length 160 m; draft 9.3 m.

Type: Cargo ship. MMSI: 351960000.

Date/timePositionNaut miles runAvg speedWind from/ knotsBaromVisibWave heightAir tempDewpointWater temp
2015-Aug-29 17:18N 35°58' W 025°36'912.5
2015-Aug-29 16:33N 35°58' W 025°24'1312.8
2015-Aug-29 15:34N 35°57' W 025°09'1312.8
2015-Aug-29 14:33N 35°57' W 024°53'1312.9
2015-Aug-29 13:33N 35°57' W 024°37'1312.8
2015-Aug-29 12:33N 35°58' W 024°21'1412.3
2015-Aug-29 11:25N 35°58' W 024°04'  
2015-Aug-27 02:12N 35°58' W 010°02'2112.6
2015-Aug-27 00:33N 35°57' W 009°37'6612.4
2015-Aug-26 19:15N 35°58' W 008°15'398 8.4
2015-Aug-24 20:04N 36°34' W 000°04'711.7
2015-Aug-24 19:28N 36°36' E 000°04'1111.7
2015-Aug-24 18:34N 36°39' E 000°17'1111.3
2015-Aug-24 17:33N 36°43' E 000°30'1511.4
2015-Aug-24 16:16N 36°47' E 000°48'20211.3
2015-Aug-23 22:21N 37°23' E 004°57'1012.0
2015-Aug-23 21:33N 37°24' E 005°09'1812.0
2015-Aug-23 20:04N 37°26' E 005°31'18412.5
2015-Aug-23 05:25N 37°42' E 009°22'4611.9
2015-Aug-23 01:33N 37°38' E 010°20'1211.9
2015-Aug-23 00:33N 37°35' E 010°34'1312.1
2015-Aug-22 23:28N 37°32' E 010°51'7712.6
2015-Aug-22 17:23N 37°02' E 012°20'1012.5
2015-Aug-22 16:33N 36°59' E 012°32'1312.6
2015-Aug-22 15:33N 36°55' E 012°47'1312.6
2015-Aug-22 14:33N 36°51' E 013°02'1312.5
2015-Aug-22 13:33N 36°48' E 013°17'1212.2
2015-Aug-22 12:33N 36°44' E 013°32'1212.0
2015-Aug-22 11:33N 36°40' E 013°46'1312.5
2015-Aug-22 10:33N 36°36' E 014°01'1312.7
2015-Aug-22 09:33N 36°33' E 014°16'1312.6
2015-Aug-22 08:33N 36°29' E 014°31'1312.5
2015-Aug-22 07:33N 36°27' E 014°46'41612.4
2015-Aug-20 22:05N 36°23' E 023°23'712.8
2015-Aug-20 21:33N 36°26' E 023°30'1412.8
2015-Aug-20 20:27N 36°37' E 023°42'1212.9
2015-Aug-20 19:33N 36°45' E 023°52'1312.8
2015-Aug-20 18:33N 36°55' E 024°02'1313.2
2015-Aug-20 17:33N 37°05' E 024°13'1313.3
2015-Aug-20 16:33N 37°15' E 024°24'6512.7
2015-Aug-20 11:27N 38°17' E 024°50'  

Dump ship's entire track history